Time;durP1;ratioP1;P1;durP2;ratioP2;P2;SDS_P1;SDS_P2;PMS_P1;PMS_P2;Temp;Humidity;BMP_temperature;BMP_pressure;BME280_temperature;BME280_humidity;BME280_pressure;Samples;Min_cycle;Max_cycle;Signal;HPM_P1;HPM_P2
2021/07/31 00:01:33;;;;;;;3.28;2.78;;;;;;;21.61;73.78;95242.34;4990123;28;20203;-87
2021/07/31 00:04:04;;;;;;;3.42;3.13;;;;;;;21.67;74.73;95238.72;4991740;28;20204;-87
2021/07/31 00:06:30;;;;;;;3.63;3.05;;;;;;;21.59;74.83;95230.53;4990983;28;20380;-88
2021/07/31 00:08:56;;;;;;;3.47;3.17;;;;;;;21.49;75.42;95236.53;4991854;28;20203;-88
2021/07/31 00:11:23;;;;;;;3.60;2.85;;;;;;;21.51;76.51;95237.06;5000056;28;20199;-87
2021/07/31 00:13:50;;;;;;;3.35;3.05;;;;;;;21.35;77.22;95251.91;5009671;28;20219;-88
2021/07/31 00:16:17;;;;;;;3.20;2.95;;;;;;;21.29;77.37;95249.50;5011384;28;20207;-88
2021/07/31 00:18:43;;;;;;;3.58;2.83;;;;;;;21.14;77.71;95251.97;5011287;28;20210;-88
2021/07/31 00:21:11;;;;;;;3.40;3.10;;;;;;;21.11;77.54;95247.22;5011219;28;20202;-88
2021/07/31 00:23:44;;;;;;;3.72;3.05;;;;;;;21.18;77.23;95232.06;5011446;28;20212;-87
2021/07/31 00:26:11;;;;;;;3.50;3.20;;;;;;;21.22;77.30;95220.88;5011252;28;20226;-88
2021/07/31 00:28:37;;;;;;;4.45;3.25;;;;;;;21.02;78.48;95225.94;5011301;28;20233;-88
2021/07/31 00:31:04;;;;;;;4.07;3.15;;;;;;;20.95;80.05;95241.09;5011176;28;20206;-88
2021/07/31 00:33:32;;;;;;;3.17;2.97;;;;;;;20.82;80.33;95237.03;5010640;28;20307;-87
2021/07/31 00:36:01;;;;;;;3.92;3.17;;;;;;;20.64;81.98;95240.00;5010642;28;20238;-87
2021/07/31 00:38:29;;;;;;;3.75;3.10;;;;;;;20.59;82.33;95243.38;5005465;28;20262;-88
2021/07/31 00:40:55;;;;;;;4.07;3.10;;;;;;;20.73;82.63;95232.53;4991278;28;20291;-88
2021/07/31 00:43:22;;;;;;;3.78;3.47;;;;;;;20.81;82.72;95224.19;4991084;28;20214;-88
2021/07/31 00:45:50;;;;;;;3.08;2.83;;;;;;;20.89;80.84;95219.31;4991223;28;20311;-88
2021/07/31 00:48:17;;;;;;;2.97;2.78;;;;;;;20.93;80.59;95207.31;4990971;28;20206;-87
2021/07/31 00:50:44;;;;;;;3.40;3.10;;;;;;;20.94;80.80;95190.56;4991146;28;20632;-87
2021/07/31 00:53:13;;;;;;;3.47;3.17;;;;;;;20.99;80.45;95201.06;4990939;28;20211;-87
2021/07/31 00:55:42;;;;;;;3.63;3.30;;;;;;;21.03;80.63;95204.75;4990766;28;20234;-87
2021/07/31 00:58:09;;;;;;;3.83;3.40;;;;;;;21.02;79.55;95199.78;4990926;28;20199;-88
2021/07/31 01:00:36;;;;;;;3.97;3.00;;;;;;;21.05;78.63;95212.34;4990673;28;20208;-88
2021/07/31 01:03:05;;;;;;;3.45;3.10;;;;;;;20.96;79.75;95208.66;4990682;28;20253;-87
2021/07/31 01:05:32;;;;;;;3.83;3.42;;;;;;;21.00;79.63;95213.09;4989046;28;20228;-87
2021/07/31 01:07:58;;;;;;;3.70;3.40;;;;;;;20.97;80.03;95218.84;4989804;28;20195;-87
2021/07/31 01:10:25;;;;;;;3.20;2.90;;;;;;;20.98;79.41;95220.41;4990742;28;20206;-88
2021/07/31 01:12:55;;;;;;;4.13;3.72;;;;;;;20.94;79.82;95216.75;4989940;28;20211;-88
2021/07/31 01:15:24;;;;;;;3.80;3.50;;;;;;;20.90;80.71;95220.88;4990136;28;20231;-88
2021/07/31 01:17:52;;;;;;;3.75;3.45;;;;;;;20.97;79.83;95218.06;4990795;28;20203;-87
2021/07/31 01:20:18;;;;;;;4.57;3.47;;;;;;;20.96;80.75;95221.72;4990198;28;20671;-88
2021/07/31 01:22:48;;;;;;;3.95;3.40;;;;;;;21.04;80.44;95216.81;4990231;28;20601;-88
2021/07/31 01:25:14;;;;;;;4.82;3.42;;;;;;;21.12;78.41;95215.56;4989996;28;20227;-87
2021/07/31 01:27:42;;;;;;;3.75;3.45;;;;;;;21.09;79.15;95223.91;4990620;28;20214;-88
2021/07/31 01:30:09;;;;;;;3.58;3.10;;;;;;;21.15;79.09;95222.13;4990206;28;20206;-89
2021/07/31 01:32:36;;;;;;;3.58;3.28;;;;;;;21.21;78.36;95232.41;4990382;28;20220;-89
2021/07/31 01:35:02;;;;;;;3.63;3.33;;;;;;;21.12;79.77;95236.50;4989861;28;20231;-87
2021/07/31 01:37:30;;;;;;;3.40;3.10;;;;;;;21.08;79.08;95229.41;4990139;28;20213;-89
2021/07/31 01:39:58;;;;;;;2.90;2.70;;;;;;;21.05;79.31;95230.69;4989827;28;20595;-88
2021/07/31 01:42:24;;;;;;;4.88;3.30;;;;;;;21.09;78.59;95223.13;4989769;28;20203;-87
2021/07/31 01:44:51;;;;;;;4.72;3.10;;;;;;;21.08;79.08;95221.53;4989956;28;20225;-88
2021/07/31 01:47:17;;;;;;;3.85;3.08;;;;;;;21.18;78.34;95216.38;4990023;28;20242;-88
2021/07/31 01:49:43;;;;;;;5.32;3.35;;;;;;;21.20;78.77;95217.72;4990519;28;20206;-87
2021/07/31 01:52:10;;;;;;;3.60;3.30;;;;;;;21.20;80.25;95225.59;4990247;28;20204;-88
2021/07/31 01:54:36;;;;;;;3.20;3.00;;;;;;;21.15;80.34;95230.00;4989571;28;20227;-88
2021/07/31 01:57:04;;;;;;;3.22;3.03;;;;;;;21.20;79.42;95227.41;4989429;28;20207;-87
2021/07/31 01:59:31;;;;;;;4.05;2.88;;;;;;;21.24;78.82;95229.28;4990027;28;20203;-87
2021/07/31 02:01:57;;;;;;;3.85;3.13;;;;;;;21.25;79.37;95223.00;4989756;28;20208;-88
2021/07/31 02:04:24;;;;;;;4.53;2.97;;;;;;;21.28;79.42;95230.38;4989474;28;20374;-87
2021/07/31 02:06:50;;;;;;;4.22;3.30;;;;;;;21.30;79.41;95230.91;4988961;28;20242;-88
2021/07/31 02:09:17;;;;;;;5.13;3.20;;;;;;;21.30;79.56;95237.97;4989746;28;20230;-88
2021/07/31 02:11:43;;;;;;;3.53;3.22;;;;;;;21.25;79.91;95230.88;4989582;28;20214;-89
2021/07/31 02:14:11;;;;;;;3.13;2.92;;;;;;;21.22;81.13;95223.50;4989267;28;20227;-88
2021/07/31 02:16:37;;;;;;;5.00;3.17;;;;;;;21.26;80.33;95229.03;4989185;28;20204;-88
2021/07/31 02:19:03;;;;;;;3.67;2.90;;;;;;;21.30;79.11;95222.25;4989248;28;20207;-88
2021/07/31 02:21:30;;;;;;;4.15;3.00;;;;;;;21.31;79.47;95226.47;4989361;28;20210;-87
2021/07/31 02:23:56;;;;;;;3.20;3.00;;;;;;;21.29;79.24;95234.56;4988333;28;20204;-88
2021/07/31 02:26:24;;;;;;;2.92;2.63;;;;;;;21.30;79.31;95230.91;4989300;28;20210;-88
2021/07/31 02:28:50;;;;;;;3.28;2.97;;;;;;;21.29;79.32;95231.94;4989557;28;20207;-88
2021/07/31 02:31:18;;;;;;;3.35;3.05;;;;;;;21.27;79.88;95231.41;4989712;28;20214;-89
2021/07/31 02:33:45;;;;;;;4.13;3.20;;;;;;;21.31;80.13;95227.25;4989272;28;20206;-87
2021/07/31 02:36:11;;;;;;;3.42;3.17;;;;;;;21.23;81.18;95219.06;4989240;28;20650;-88
2021/07/31 02:38:38;;;;;;;3.55;3.25;;;;;;;21.26;81.76;95214.13;4989160;28;20612;-88
2021/07/31 02:41:05;;;;;;;2.95;2.72;;;;;;;21.33;80.51;95211.28;4989229;28;20227;-88
2021/07/31 02:43:31;;;;;;;3.47;3.00;;;;;;;21.33;80.15;95219.13;4989244;28;20208;-88
2021/07/31 02:46:04;;;;;;;3.63;3.33;;;;;;;21.35;80.69;95219.69;4988937;28;20385;-89
2021/07/31 02:48:35;;;;;;;4.72;3.28;;;;;;;21.28;80.04;95222.50;4988872;28;20206;-87
2021/07/31 02:51:03;;;;;;;3.67;2.97;;;;;;;21.36;78.91;95216.00;4988912;28;20210;-89
2021/07/31 02:53:29;;;;;;;3.10;2.90;;;;;;;21.35;79.92;95209.22;4988882;28;20219;-87
2021/07/31 02:55:56;;;;;;;3.38;3.10;;;;;;;21.30;79.39;95211.78;4988998;28;20227;-88
2021/07/31 02:58:24;;;;;;;3.35;3.05;;;;;;;21.23;79.55;95209.38;4988937;28;20207;-88
2021/07/31 03:00:51;;;;;;;3.40;3.10;;;;;;;21.24;79.58;95215.41;4988846;28;20203;-88
2021/07/31 03:03:17;;;;;;;3.53;3.22;;;;;;;21.24;79.41;95210.94;4988446;28;20725;-88
2021/07/31 03:05:53;;;;;;;2.85;2.65;;;;;;;21.26;78.99;95214.13;4987864;28;20235;-89
2021/07/31 03:08:22;;;;;;;3.17;2.88;;;;;;;21.17;79.19;95205.09;4989148;28;20213;-88
2021/07/31 03:10:53;;;;;;;4.43;2.88;;;;;;;21.19;79.10;95199.63;4988953;28;20215;-88
2021/07/31 03:13:20;;;;;;;3.42;3.13;;;;;;;21.19;79.28;95194.38;4996875;28;20210;-88
2021/07/31 03:15:46;;;;;;;3.50;3.20;;;;;;;21.23;78.99;95201.53;4992901;28;20230;-89
2021/07/31 03:18:13;;;;;;;3.38;3.08;;;;;;;21.27;78.79;95205.22;4989044;28;20199;-88
2021/07/31 03:20:46;;;;;;;4.13;3.20;;;;;;;21.29;78.80;95200.53;4989186;28;20199;-87
2021/07/31 03:23:13;;;;;;;3.70;3.40;;;;;;;21.31;78.51;95189.78;4988560;28;20569;-88
2021/07/31 03:25:39;;;;;;;3.17;2.97;;;;;;;21.34;78.36;95192.69;4988556;28;20710;-88
2021/07/31 03:28:06;;;;;;;3.33;3.08;;;;;;;21.31;78.46;95189.78;4988700;28;20207;-88
2021/07/31 03:30:33;;;;;;;3.50;3.13;;;;;;;21.28;77.94;95193.69;4988777;28;20199;-88
2021/07/31 03:32:59;;;;;;;3.80;3.50;;;;;;;21.28;78.41;95196.31;4988397;28;20211;-88
2021/07/31 03:35:26;;;;;;;4.05;3.17;;;;;;;21.26;79.03;95206.25;4989608;28;20871;-88
2021/07/31 03:37:56;;;;;;;3.67;3.35;;;;;;;21.25;78.50;95201.28;4992714;28;20226;-89
2021/07/31 03:40:26;;;;;;;5.10;3.67;;;;;;;21.23;78.62;95212.00;4992375;28;20695;-89
2021/07/31 03:42:52;;;;;;;3.45;3.15;;;;;;;21.22;78.66;95212.25;4992421;28;20261;-89
2021/07/31 03:45:18;;;;;;;3.50;3.15;;;;;;;21.23;79.03;95212.00;4992233;28;20230;-89
2021/07/31 03:47:45;;;;;;;3.47;3.17;;;;;;;21.21;78.62;95214.06;4984160;28;20203;-88
2021/07/31 03:50:14;;;;;;;3.80;3.22;;;;;;;21.17;78.71;95214.78;4973004;28;20200;-87
2021/07/31 03:52:40;;;;;;;3.67;3.38;;;;;;;21.16;78.64;95213.25;4972966;28;20211;-88
2021/07/31 03:55:11;;;;;;;3.30;3.08;;;;;;;21.17;78.28;95212.16;4988547;28;20448;-88
2021/07/31 03:57:40;;;;;;;3.67;3.13;;;;;;;21.15;78.98;95209.84;4991982;28;20205;-88
2021/07/31 04:00:07;;;;;;;3.50;3.20;;;;;;;21.16;78.50;95210.63;4992117;28;20200;-88
2021/07/31 04:02:34;;;;;;;3.33;3.03;;;;;;;21.19;78.08;95207.47;4992273;28;20207;-88
2021/07/31 04:05:03;;;;;;;4.18;3.20;;;;;;;21.19;78.24;95221.34;4991032;28;20215;-89
2021/07/31 04:07:29;;;;;;;3.42;2.97;;;;;;;21.21;78.28;95221.13;4991816;28;20195;-88
2021/07/31 04:09:56;;;;;;;3.72;3.42;;;;;;;21.19;77.72;95218.75;4991796;28;20208;-88
2021/07/31 04:12:24;;;;;;;3.58;3.28;;;;;;;21.15;78.59;95222.13;4991701;28;20203;-88
2021/07/31 04:14:50;;;;;;;3.50;3.20;;;;;;;21.14;78.62;95215.31;4991419;28;20703;-88
2021/07/31 04:17:16;;;;;;;3.70;3.22;;;;;;;21.10;78.40;95219.47;4991872;28;20195;-88
2021/07/31 04:19:43;;;;;;;3.40;3.20;;;;;;;21.16;78.48;95219.25;4991830;28;20703;-88
2021/07/31 04:22:10;;;;;;;3.58;3.28;;;;;;;21.08;80.24;95213.69;4992073;28;20211;-89
2021/07/31 04:24:37;;;;;;;3.58;3.28;;;;;;;21.20;78.74;95215.09;4991434;28;20223;-88
2021/07/31 04:27:04;;;;;;;3.53;3.33;;;;;;;21.26;78.67;95202.84;4991775;28;20204;-89
2021/07/31 04:29:32;;;;;;;3.58;3.28;;;;;;;21.31;78.15;95197.66;4991756;28;20266;-88
2021/07/31 04:31:58;;;;;;;3.70;3.40;;;;;;;21.34;77.99;95194.53;4991765;28;20644;-89
2021/07/31 04:34:28;;;;;;;3.53;3.22;;;;;;;21.36;77.54;95200.28;4991275;28;20227;-88
2021/07/31 04:36:55;;;;;;;4.07;3.70;;;;;;;21.38;77.65;95193.75;4991536;28;20211;-89
2021/07/31 04:39:21;;;;;;;3.60;3.30;;;;;;;21.41;77.41;95197.69;4991662;28;20222;-88
2021/07/31 04:41:48;;;;;;;4.20;3.80;;;;;;;21.38;76.88;95199.00;4986801;28;20622;-89
2021/07/31 04:44:14;;;;;;;4.43;3.63;;;;;;;21.36;77.33;95208.13;4980631;28;20227;-88
2021/07/31 04:46:42;;;;;;;3.83;3.50;;;;;;;21.36;77.39;95202.91;4971258;28;20204;-87
2021/07/31 04:49:08;;;;;;;3.58;3.28;;;;;;;21.42;77.13;95209.75;4989645;28;20211;-89
2021/07/31 04:51:35;;;;;;;4.47;3.80;;;;;;;21.48;77.59;95207.97;4991380;28;20310;-88
2021/07/31 04:54:29;;;;;;;5.05;3.67;;;;;;;21.46;77.13;95205.59;4991250;28;20692;-87
2021/07/31 04:56:55;;;;;;;4.18;3.78;;;;;;;21.44;77.72;95207.66;4991841;28;20195;-88
2021/07/31 04:59:41;;;;;;;3.58;3.28;;;;;;;21.43;77.94;95200.84;4992245;28;20717;-89
2021/07/31 05:02:44;;;;;;;3.47;3.17;;;;;;;21.47;76.99;95199.31;4991172;28;20249;-89
2021/07/31 05:05:22;;;;;;;3.95;3.60;;;;;;;21.54;77.11;95209.56;4961366;28;20228;-90
2021/07/31 05:08:06;;;;;;;3.58;3.28;;;;;;;21.60;75.95;95208.53;4970393;28;20200;-89
2021/07/31 05:10:34;;;;;;;3.50;3.20;;;;;;;21.71;75.97;95202.31;4971639;28;20263;-86
2021/07/31 05:13:00;;;;;;;3.95;3.35;;;;;;;21.79;75.45;95201.81;4971219;28;20324;-88
2021/07/31 05:15:59;;;;;;;3.47;3.17;;;;;;;21.88;75.88;95200.28;4971475;28;20274;-90
2021/07/31 05:21:49;;;;;;;3.70;3.40;;;;;;;21.99;75.68;95201.09;4890077;28;20208;-88
2021/07/31 05:24:53;;;;;;;3.78;3.40;;;;;;;21.98;75.60;95207.41;4971064;28;20227;-89
2021/07/31 05:28:02;;;;;;;3.67;3.38;;;;;;;21.91;75.51;95206.88;4971138;28;20203;-89
2021/07/31 05:30:39;;;;;;;3.85;3.50;;;;;;;21.84;76.16;95211.53;4957357;28;20213;-89
2021/07/31 05:39:27;;;;;;;3.83;3.45;;;;;;;21.93;74.98;95216.06;4988855;28;20285;-88
2021/07/31 05:41:58;;;;;;;3.90;3.60;;;;;;;21.91;74.63;95212.91;4990324;28;20207;-90
2021/07/31 05:47:11;;;;;;;4.57;3.42;;;;;;;22.14;74.60;95224.00;4991167;28;20218;-90
2021/07/31 05:50:21;;;;;;;3.17;2.97;;;;;;;22.07;74.54;95213.75;4994027;28;20214;-88
2021/07/31 05:52:52;;;;;;;3.83;3.33;;;;;;;21.96;74.35;95206.84;4991741;28;20285;-88
2021/07/31 05:55:21;;;;;;;3.88;3.58;;;;;;;22.10;73.98;95218.50;4993519;28;20246;-88
2021/07/31 05:58:12;;;;;;;4.80;3.42;;;;;;;22.18;73.52;95214.56;4992637;28;20653;-87
2021/07/31 06:00:45;;;;;;;3.63;3.28;;;;;;;22.20;73.57;95215.09;4994383;28;20195;-89
2021/07/31 06:03:14;;;;;;;3.75;3.40;;;;;;;22.29;73.72;95218.81;4993642;28;20952;-87
2021/07/31 06:06:10;;;;;;;4.43;3.60;;;;;;;22.35;73.00;95218.56;4993117;28;20872;-89
2021/07/31 06:09:01;;;;;;;6.40;5.68;;;;;;;22.43;74.09;95229.59;4981659;28;20199;-87
2021/07/31 06:11:27;;;;;;;7.93;7.22;;;;;;;22.44;72.98;95226.72;4993465;28;20218;-88
2021/07/31 06:14:01;;;;;;;5.15;4.40;;;;;;;22.48;73.02;95227.00;4994002;28;20215;-88
2021/07/31 06:16:50;;;;;;;4.30;3.90;;;;;;;22.53;72.93;95226.97;4994332;28;20300;-88
2021/07/31 06:19:37;;;;;;;4.55;3.40;;;;;;;22.54;72.26;95221.47;4992480;28;20267;-88
2021/07/31 06:22:58;;;;;;;4.00;3.67;;;;;;;22.55;72.55;95224.88;4992383;28;20214;-89
2021/07/31 06:25:56;;;;;;;3.58;3.30;;;;;;;22.41;71.55;95219.34;4931053;28;20223;-90
2021/07/31 06:28:31;;;;;;;4.13;3.63;;;;;;;22.34;71.80;95219.59;4988026;28;20251;-92
2021/07/31 06:31:23;;;;;;;7.15;6.55;;;;;;;22.49;71.34;95220.69;4987564;28;20200;-88
2021/07/31 06:33:54;;;;;;;4.70;4.30;;;;;;;22.58;70.94;95219.91;4988156;28;20196;-89
2021/07/31 06:36:30;;;;;;;3.80;3.50;;;;;;;22.57;71.55;95218.34;4988396;28;20273;-93
2021/07/31 06:39:14;;;;;;;3.80;3.45;;;;;;;22.65;71.69;95214.41;4988518;28;20309;-88
2021/07/31 06:41:42;;;;;;;4.75;3.70;;;;;;;22.50;70.17;95217.81;4973651;28;20639;-90
2021/07/31 06:44:08;;;;;;;5.03;4.63;;;;;;;22.53;70.53;95213.84;4969744;28;20203;-89
2021/07/31 06:46:35;;;;;;;5.10;4.65;;;;;;;22.59;70.49;95216.25;4969229;28;20204;-91
2021/07/31 06:49:18;;;;;;;4.10;3.80;;;;;;;22.57;71.00;95214.91;4974790;28;20203;-89
2021/07/31 06:51:54;;;;;;;4.97;3.65;;;;;;;22.36;68.34;95214.09;4988391;28;20254;-88
2021/07/31 06:54:28;;;;;;;3.78;3.47;;;;;;;22.40;68.01;95215.94;4988192;28;20262;-90
2021/07/31 06:57:14;;;;;;;3.65;3.35;;;;;;;22.40;68.21;95215.94;4987966;28;20732;-88
2021/07/31 06:59:49;;;;;;;5.43;4.10;;;;;;;22.33;67.54;95220.63;4988118;28;20206;-88
2021/07/31 07:02:15;;;;;;;3.95;3.65;;;;;;;22.45;68.42;95222.25;4988091;28;20288;-87
2021/07/31 07:04:58;;;;;;;6.25;5.75;;;;;;;22.58;68.46;95222.53;4987653;28;20227;-89
2021/07/31 07:07:37;;;;;;;5.78;4.30;;;;;;;22.50;67.27;95217.81;4987571;28;20219;-87
2021/07/31 07:10:07;;;;;;;5.15;4.65;;;;;;;22.50;68.50;95219.66;4988969;28;20206;-88
2021/07/31 07:12:35;;;;;;;4.40;4.00;;;;;;;22.64;67.83;95221.50;4992373;28;20192;-89
2021/07/31 07:18:14;;;;;;;4.57;4.18;;;;;;;22.75;69.04;95211.78;4970305;28;20660;-87
2021/07/31 07:20:58;;;;;;;5.32;4.82;;;;;;;22.75;67.27;95209.16;4992648;28;20227;-89
2021/07/31 07:23:24;;;;;;;4.43;3.97;;;;;;;22.81;67.55;95210.00;4993311;28;20706;-87
2021/07/31 07:25:51;;;;;;;5.10;4.60;;;;;;;22.82;66.67;95203.69;4992769;28;20227;-88
2021/07/31 07:28:18;;;;;;;4.82;4.25;;;;;;;22.86;66.83;95204.75;4993041;28;20222;-87
2021/07/31 07:30:46;;;;;;;6.72;4.40;;;;;;;22.87;67.54;95199.25;4991553;28;20203;-90
2021/07/31 07:33:12;;;;;;;5.10;4.30;;;;;;;22.93;66.74;95200.78;4991398;28;20215;-90
2021/07/31 07:41:21;;;;;;;5.32;4.40;;;;;;;23.22;66.90;95197.63;4987802;28;20215;-90
2021/07/31 07:53:50;;;;;;;5.25;3.75;;;;;;;23.43;65.23;95193.94;5016264;28;20201;-90
2021/07/31 08:02:38;;;;;;;5.95;3.53;;;;;;;23.32;63.57;95200.22;5019514;28;20845;-89
2021/07/31 08:05:13;;;;;;;3.72;3.40;;;;;;;23.53;63.78;95207.06;5087476;23;20228;-87
2021/07/31 08:07:41;;;;;;;5.38;3.55;;;;;;;23.84;61.69;95201.72;5069850;28;20662;-88
2021/07/31 08:10:12;;;;;;;4.10;3.70;;;;;;;23.90;61.06;95201.41;5070035;28;20197;-89
2021/07/31 08:12:38;;;;;;;3.80;3.50;;;;;;;23.99;61.06;95204.28;5070091;28;20285;-89
2021/07/31 08:15:07;;;;;;;4.20;3.22;;;;;;;24.14;61.85;95200.78;5075743;28;20213;-88
2021/07/31 08:17:49;;;;;;;;;;;;;;;;;;;;;
2021/07/31 08:20:18;;;;;;;5.32;3.40;;;;;;;24.15;61.92;95192.63;5079334;28;20212;-88
2021/07/31 08:22:45;;;;;;;3.90;3.50;;;;;;;24.28;60.58;95192.06;5069327;28;20207;-88
2021/07/31 08:25:12;;;;;;;3.35;3.13;;;;;;;24.34;61.29;95187.56;5070874;28;20221;-87
2021/07/31 08:27:41;;;;;;;3.92;3.38;;;;;;;24.41;62.14;95190.69;5070513;28;20208;-89
2021/07/31 08:30:12;;;;;;;5.60;3.65;;;;;;;24.34;62.21;95198.88;5070182;28;20189;-89
2021/07/31 08:32:44;;;;;;;3.58;3.28;;;;;;;24.34;61.13;95198.09;5074278;28;20213;-88
2021/07/31 08:35:20;;;;;;;3.78;3.47;;;;;;;24.51;60.24;95192.44;5072858;28;20224;-88
2021/07/31 08:37:46;;;;;;;3.65;3.28;;;;;;;24.54;58.82;95189.28;5067675;28;20220;-88
2021/07/31 08:40:16;;;;;;;3.28;2.97;;;;;;;24.77;57.66;95197.28;5050371;28;20243;-89
2021/07/31 08:42:46;;;;;;;2.95;2.75;;;;;;;24.76;55.42;95197.53;5053371;28;20232;-87
2021/07/31 08:45:20;;;;;;;3.40;3.05;;;;;;;24.76;53.57;95211.50;5070043;28;20470;-88
2021/07/31 08:47:47;;;;;;;3.38;2.83;;;;;;;24.91;55.16;95197.41;5070375;28;20304;-87
2021/07/31 08:50:16;;;;;;;3.95;2.90;;;;;;;24.98;54.93;95197.16;5069964;28;20197;-88
2021/07/31 08:52:47;;;;;;;4.03;3.00;;;;;;;25.09;56.19;95196.78;5053699;28;20201;-86
2021/07/31 08:55:14;;;;;;;4.35;4.05;;;;;;;25.10;52.68;95200.19;5055697;28;20209;-88
2021/07/31 08:57:40;;;;;;;3.95;3.28;;;;;;;24.93;54.50;95208.47;5069292;28;20217;-88
2021/07/31 09:00:08;;;;;;;3.38;2.80;;;;;;;24.87;54.83;95209.56;5069904;28;20200;-86
2021/07/31 09:02:44;;;;;;;3.28;2.97;;;;;;;24.80;55.51;95203.84;5069877;28;20197;-87
2021/07/31 09:05:12;;;;;;;3.10;2.90;;;;;;;24.72;56.89;95196.50;5069236;28;20235;-87
2021/07/31 09:07:40;;;;;;;3.17;2.88;;;;;;;24.67;56.41;95201.81;5069608;28;20201;-87
2021/07/31 09:10:39;;;;;;;3.05;2.78;;;;;;;24.50;55.82;95196.91;5069911;28;20201;-87
2021/07/31 09:13:07;;;;;;;3.50;3.20;;;;;;;24.47;56.65;95196.69;5065924;28;20198;-86
2021/07/31 09:15:37;;;;;;;3.50;3.20;;;;;;;24.34;58.63;95193.59;5065118;28;20221;-87
2021/07/31 09:18:21;;;;;;;3.63;3.33;;;;;;;24.30;59.54;95197.84;5051282;28;20241;-87
2021/07/31 09:21:02;;;;;;;6.57;3.47;;;;;;;24.26;62.03;95194.16;5068905;28;20288;-85
2021/07/31 09:23:44;;;;;;;38.35;34.40;;;;;;;24.27;62.28;95190.47;5058108;28;20205;-87
2021/07/31 09:26:11;;;;;;;20.23;18.33;;;;;;;24.37;61.29;95192.28;5049759;28;20222;-87
2021/07/31 09:28:40;;;;;;;5.50;5.03;;;;;;;24.33;59.97;95196.50;5068459;28;20257;-87
2021/07/31 09:31:11;;;;;;;6.45;3.85;;;;;;;24.32;60.37;95194.94;5073053;28;20212;-86
2021/07/31 09:33:44;;;;;;;3.83;3.40;;;;;;;24.38;60.49;95193.84;5083319;28;20195;-86
2021/07/31 09:36:10;;;;;;;3.55;3.22;;;;;;;24.49;59.22;95202.47;5067485;28;20652;-86
2021/07/31 09:38:38;;;;;;;3.65;3.35;;;;;;;24.81;58.20;95202.00;5051281;28;20208;-86
2021/07/31 09:41:26;;;;;;;3.58;3.25;;;;;;;24.87;59.84;95199.03;5052218;28;20202;-86
2021/07/31 09:44:07;;;;;;;4.28;3.80;;;;;;;24.71;57.47;95201.00;5050794;28;20209;-84
2021/07/31 09:46:37;;;;;;;3.60;3.30;;;;;;;24.62;59.25;95209.75;5048619;28;20236;-85
2021/07/31 09:49:07;;;;;;;3.72;3.42;;;;;;;24.40;60.28;95207.53;5060087;28;20197;-85
2021/07/31 09:51:38;;;;;;;4.10;3.55;;;;;;;24.21;61.77;95217.06;5068430;28;20205;-85
2021/07/31 09:54:10;;;;;;;7.80;3.78;;;;;;;24.08;61.11;95219.22;5068029;28;20660;-86
2021/07/31 09:56:45;;;;;;;4.07;3.67;;;;;;;23.99;61.22;95210.34;5068104;28;20236;-85
2021/07/31 09:59:13;;;;;;;4.00;3.70;;;;;;;23.84;62.74;95210.41;5068239;28;20204;-86
2021/07/31 10:01:42;;;;;;;5.00;3.60;;;;;;;23.69;62.84;95208.59;5067524;28;20204;-86
2021/07/31 10:04:11;;;;;;;5.63;4.65;;;;;;;23.63;60.78;95211.50;5074595;28;20208;-87
2021/07/31 10:06:38;;;;;;;16.75;15.20;;;;;;;23.54;61.70;95210.47;5073043;28;20225;-88
2021/07/31 10:09:06;;;;;;;10.05;9.15;;;;;;;23.52;61.67;95210.72;5072941;28;20215;-88
2021/07/31 10:11:33;;;;;;;4.15;3.80;;;;;;;23.52;61.75;95209.94;5072216;28;20845;-87
2021/07/31 10:14:02;;;;;;;4.88;3.92;;;;;;;23.55;61.92;95197.06;5072452;28;20254;-88
2021/07/31 10:16:28;;;;;;;3.58;3.28;;;;;;;23.61;60.85;95188.13;5072581;28;20224;-86
2021/07/31 10:18:57;;;;;;;4.25;3.63;;;;;;;23.79;60.63;95196.47;5072263;28;20235;-88
2021/07/31 10:21:25;;;;;;;3.67;3.38;;;;;;;23.98;59.66;95198.22;5071643;28;20262;-87
2021/07/31 10:24:00;;;;;;;5.15;4.00;;;;;;;24.23;59.27;95189.44;5071736;28;20611;-87
2021/07/31 10:26:29;;;;;;;8.68;7.88;;;;;;;24.38;59.23;95191.22;5071792;28;20203;-83
2021/07/31 10:28:55;;;;;;;6.50;5.90;;;;;;;24.46;58.62;95190.63;5072476;28;20204;-87
2021/07/31 10:31:28;;;;;;;4.40;3.78;;;;;;;24.44;59.35;95188.25;5071593;28;20201;-87
2021/07/31 10:33:55;;;;;;;3.80;3.50;;;;;;;24.55;59.19;95193.47;5072224;28;20337;-87
2021/07/31 10:36:31;;;;;;;4.47;3.60;;;;;;;24.56;58.83;95187.94;5066831;28;20212;-87
2021/07/31 10:38:58;;;;;;;4.32;4.03;;;;;;;24.59;58.84;95187.41;5058242;28;20191;-89
2021/07/31 10:41:55;;;;;;;3.53;3.22;;;;;;;24.52;59.12;95186.13;5062672;28;20874;-88
2021/07/31 10:44:22;;;;;;;3.83;3.50;;;;;;;24.51;58.09;95187.97;5069281;28;20215;-86
2021/07/31 10:47:34;;;;;;;3.67;3.33;;;;;;;24.35;58.01;95179.38;5063488;28;20204;-88
2021/07/31 10:50:01;;;;;;;3.67;3.13;;;;;;;24.37;57.27;95187.81;5061435;28;20231;-86
2021/07/31 10:52:54;;;;;;;3.97;3.20;;;;;;;24.31;56.52;95193.34;5072384;28;20258;-87
2021/07/31 10:55:21;;;;;;;4.30;3.40;;;;;;;24.27;57.63;95182.59;5071536;28;20217;-87
2021/07/31 10:58:07;;;;;;;4.30;3.88;;;;;;;24.19;56.40;95192.88;5071244;28;20224;-86
2021/07/31 11:00:37;;;;;;;3.70;3.40;;;;;;;24.22;56.74;95187.88;5071475;28;20291;-87
2021/07/31 11:03:25;;;;;;;3.90;3.60;;;;;;;24.49;57.05;95197.19;5072639;28;20239;-87
2021/07/31 11:06:03;;;;;;;3.97;3.50;;;;;;;24.79;56.03;95189.88;5070755;28;20234;-88
2021/07/31 11:08:33;;;;;;;4.57;3.55;;;;;;;25.15;56.06;95186.97;5067612;28;20284;-89
2021/07/31 11:11:00;;;;;;;4.18;3.53;;;;;;;25.51;54.12;95192.69;5069130;28;20250;-86
2021/07/31 11:13:52;;;;;;;3.85;3.55;;;;;;;25.95;52.61;95175.88;5071607;28;20583;-87
2021/07/31 11:16:20;;;;;;;3.20;2.90;;;;;;;25.95;51.08;95170.59;5069444;28;20217;-86
2021/07/31 11:18:49;;;;;;;3.30;2.92;;;;;;;26.05;51.64;95175.72;5061106;28;20587;-86
2021/07/31 11:21:17;;;;;;;2.88;2.67;;;;;;;25.99;52.56;95169.72;5058297;28;20212;-88
2021/07/31 11:23:47;;;;;;;5.43;3.80;;;;;;;26.08;50.67;95161.97;5066821;28;20200;-87
2021/07/31 11:26:31;;;;;;;5.40;4.90;;;;;;;26.11;51.36;95170.09;5069097;28;20219;-88
2021/07/31 11:28:58;;;;;;;3.97;3.00;;;;;;;26.35;49.64;95161.38;5050003;28;20205;-87
2021/07/31 11:31:24;;;;;;;2.90;2.70;;;;;;;26.53;49.80;95165.88;5050441;28;20216;-86
2021/07/31 11:33:57;;;;;;;2.80;2.55;;;;;;;26.35;49.61;95159.53;5071095;28;20807;-87
2021/07/31 11:36:25;;;;;;;3.00;2.67;;;;;;;26.23;49.31;95153.84;5056261;28;20197;-87
2021/07/31 11:38:53;;;;;;;3.20;2.92;;;;;;;25.96;50.52;95159.75;5050312;28;20712;-87
2021/07/31 11:41:23;;;;;;;2.90;2.70;;;;;;;25.63;50.46;95166.72;5051039;28;20205;-87
2021/07/31 11:43:51;;;;;;;3.45;2.63;;;;;;;25.45;51.19;95176.13;5050702;28;20202;-86
2021/07/31 11:46:38;;;;;;;3.88;2.80;;;;;;;25.38;52.15;95167.78;5051218;28;20217;-87
2021/07/31 11:49:07;;;;;;;4.03;3.38;;;;;;;25.32;52.76;95174.16;5051961;28;20255;-86
2021/07/31 11:51:40;;;;;;;3.03;2.80;;;;;;;25.25;53.23;95170.28;5051702;28;20201;-87
2021/07/31 11:54:09;;;;;;;3.00;2.70;;;;;;;25.27;52.80;95166.28;5051853;28;20201;-86
2021/07/31 11:56:39;;;;;;;3.15;2.85;;;;;;;25.29;51.67;95164.16;5053849;28;20232;-86
2021/07/31 11:59:08;;;;;;;3.65;2.97;;;;;;;25.31;51.72;95163.91;5054363;28;20611;-86
2021/07/31 12:01:37;;;;;;;2.85;2.53;;;;;;;25.18;51.16;95167.97;5054318;28;20198;-86
2021/07/31 12:04:05;;;;;;;2.80;2.60;;;;;;;25.16;51.71;95164.84;5053606;28;20201;-87
2021/07/31 12:06:43;;;;;;;3.35;2.70;;;;;;;25.05;51.64;95165.97;5054548;28;20232;-86
2021/07/31 12:09:26;;;;;;;6.75;2.65;;;;;;;24.99;52.00;95165.25;5055618;28;20205;-86
2021/07/31 12:11:55;;;;;;;2.95;2.60;;;;;;;25.08;51.91;95157.53;5049773;28;20233;-86
2021/07/31 12:14:33;;;;;;;5.63;2.50;;;;;;;25.12;52.35;95154.06;5053759;28;20247;-86
2021/07/31 12:17:23;;;;;;;3.22;2.92;;;;;;;25.18;52.99;95157.44;5052559;28;20228;-86
2021/07/31 12:19:52;;;;;;;2.75;2.55;;;;;;;25.21;52.58;95166.66;5064332;28;20205;-86
2021/07/31 12:22:20;;;;;;;3.45;2.78;;;;;;;25.21;53.01;95167.41;5073792;28;20205;-86
2021/07/31 12:25:08;;;;;;;5.90;2.70;;;;;;;25.06;51.89;95160.44;5073086;28;20278;-87
2021/07/31 12:27:58;;;;;;;6.00;5.40;;;;;;;25.13;51.04;95160.91;5073629;28;20660;-87
2021/07/31 12:30:27;;;;;;;4.35;3.95;;;;;;;25.20;51.38;95151.91;5073357;28;20231;-86
2021/07/31 12:32:54;;;;;;;2.90;2.70;;;;;;;25.28;52.18;95156.53;5072752;28;20196;-85